createdAt,value
2023-01-31T00:11:11.201Z,20
2023-01-31T00:26:13.229Z,10
2023-01-31T00:41:15.189Z,0
2023-01-31T00:56:17.124Z,40
2023-01-31T01:11:19.142Z,0
2023-01-31T01:26:21.142Z,0
2023-01-31T01:41:23.141Z,0
2023-01-31T01:56:25.114Z,0
2023-01-31T02:11:27.424Z,0
2023-01-31T02:26:29.353Z,0
2023-01-31T02:41:31.306Z,0
2023-01-31T02:56:33.392Z,0
2023-01-31T03:11:35.295Z,0
2023-01-31T03:26:37.354Z,0
2023-01-31T03:41:39.278Z,0
2023-01-31T03:56:41.306Z,0
2023-01-31T04:11:43.235Z,0
2023-01-31T04:26:45.217Z,0
2023-01-31T04:41:47.601Z,0
2023-01-31T04:56:49.578Z,30
2023-01-31T05:11:51.541Z,30
2023-01-31T05:26:53.464Z,30
2023-01-31T05:41:55.582Z,30
2023-01-31T05:56:57.477Z,30
2023-01-31T06:11:59.934Z,30
2023-01-31T06:27:01.910Z,0
2023-01-31T06:42:03.846Z,0
2023-01-31T06:57:05.963Z,0
2023-01-31T07:12:07.930Z,0
2023-01-31T07:27:09.814Z,0
2023-01-31T07:42:11.805Z,0
2023-01-31T07:57:13.759Z,0
2023-01-31T08:12:15.668Z,0
2023-01-31T08:27:17.624Z,0
2023-01-31T08:42:19.556Z,0
2023-01-31T08:57:21.452Z,0
2023-01-31T09:12:23.420Z,0
2023-01-31T09:27:25.346Z,0
2023-01-31T09:42:27.341Z,0
2023-01-31T09:57:29.482Z,0
2023-01-31T10:12:31.677Z,0
2023-01-31T10:27:33.591Z,0
2023-01-31T10:42:35.467Z,0
2023-01-31T10:57:37.583Z,0
2023-01-31T11:12:39.507Z,0
2023-01-31T11:27:41.466Z,0
2023-01-31T11:42:43.371Z,0
2023-01-31T11:57:45.254Z,0
2023-01-31T12:12:47.152Z,0
2023-01-31T12:27:49.070Z,0
2023-01-31T12:42:50.976Z,0
2023-01-31T12:57:52.907Z,0
2023-01-31T13:12:54.818Z,0
2023-01-31T13:27:56.752Z,0
2023-01-31T13:42:58.650Z,0
2023-01-31T13:58:00.576Z,0
2023-01-31T14:13:02.471Z,0
2023-01-31T14:28:04.387Z,0
2023-01-31T14:43:06.306Z,0
2023-01-31T14:58:08.234Z,0
2023-01-31T15:13:10.213Z,0
2023-01-31T15:28:12.165Z,0
2023-01-31T15:43:14.095Z,10
2023-01-31T15:58:16.114Z,10
2023-01-31T16:13:18.039Z,30
2023-01-31T16:28:19.953Z,30
2023-01-31T16:43:21.882Z,40
2023-01-31T16:58:23.773Z,50
2023-01-31T17:13:25.716Z,70
2023-01-31T17:28:27.596Z,70
2023-01-31T17:43:29.519Z,90
2023-01-31T17:58:31.449Z,120
2023-01-31T18:13:33.378Z,120
2023-01-31T18:28:35.304Z,130
2023-01-31T18:43:37.198Z,150
2023-01-31T18:58:39.130Z,200
2023-01-31T19:13:41.057Z,170
2023-01-31T19:28:42.974Z,170
2023-01-31T19:43:44.938Z,200
2023-01-31T19:58:46.867Z,180
2023-01-31T20:13:48.825Z,210
2023-01-31T20:28:50.736Z,240
2023-01-31T20:43:52.659Z,190
2023-01-31T20:58:54.558Z,200
2023-01-31T21:13:56.524Z,170
2023-01-31T21:28:58.440Z,170
2023-01-31T21:44:00.366Z,180
2023-01-31T21:59:02.306Z,140
2023-01-31T22:14:04.213Z,120
2023-01-31T22:29:06.130Z,110
2023-01-31T22:44:08.049Z,110
2023-01-31T22:59:09.958Z,170
2023-01-31T23:14:11.888Z,140
2023-01-31T23:29:13.901Z,70
2023-01-31T23:44:15.823Z,50
2023-01-31T23:59:17.732Z,40
